Time;durP1;ratioP1;P1;durP2;ratioP2;P2;SDS_P1;SDS_P2;PMS_P1;PMS_P2;Temp;Humidity;BMP_temperature;BMP_pressure;BME280_temperature;BME280_humidity;BME280_pressure;Samples;Min_cycle;Max_cycle;Signal;HPM_P1;HPM_P2
2022/09/26 04:08:01;;;;;;;5.15;4.65;;;10.70;99.90;;;;;;4994980;28;20657;-68
2022/09/26 04:10:27;;;;;;;5.70;5.05;;;10.70;99.90;;;;;;4978753;28;20249;-69
2022/09/26 04:12:53;;;;;;;5.70;5.10;;;10.60;99.90;;;;;;4994385;28;20606;-69
2022/09/26 04:15:18;;;;;;;5.60;5.10;;;10.60;99.90;;;;;;4994820;28;20195;-69
2022/09/26 04:17:44;;;;;;;5.53;5.03;;;10.60;99.90;;;;;;4982633;28;20215;-68
2022/09/26 04:20:10;;;;;;;6.20;4.57;;;10.60;99.90;;;;;;4991784;28;20639;-69
2022/09/26 04:22:36;;;;;;;7.30;6.60;;;10.60;99.90;;;;;;4976228;28;20209;-69
2022/09/26 04:25:01;;;;;;;6.30;5.63;;;10.60;99.90;;;;;;4992751;28;20219;-68
2022/09/26 04:27:27;;;;;;;6.97;5.10;;;10.60;99.90;;;;;;4995439;28;20423;-68
2022/09/26 04:29:55;;;;;;;5.22;4.65;;;10.60;99.90;;;;;;4985055;28;20200;-69
2022/09/26 04:32:21;;;;;;;5.20;4.70;;;10.60;99.90;;;;;;4975742;28;20247;-69
2022/09/26 04:34:47;;;;;;;5.10;4.60;;;10.50;99.90;;;;;;4984121;28;20223;-68
2022/09/26 04:37:12;;;;;;;9.57;5.97;;;10.50;99.90;;;;;;4978275;28;20184;-68
2022/09/26 04:39:38;;;;;;;5.90;4.77;;;10.50;99.90;;;;;;4995250;28;20234;-67
2022/09/26 04:42:04;;;;;;;6.67;4.63;;;10.40;99.90;;;;;;4995733;28;20180;-69
2022/09/26 04:44:29;;;;;;;4.70;3.50;;;10.40;99.90;;;;;;4994820;28;20191;-69
2022/09/26 04:46:55;;;;;;;5.50;4.40;;;10.30;99.90;;;;;;4995923;28;20667;-68
2022/09/26 04:49:20;;;;;;;7.27;5.63;;;10.30;99.90;;;;;;4977553;28;20222;-67
2022/09/26 04:51:47;;;;;;;4.80;4.00;;;10.30;99.90;;;;;;4995115;28;20230;-68
2022/09/26 04:54:15;;;;;;;5.43;4.88;;;10.30;99.90;;;;;;4994620;28;20266;-69
2022/09/26 04:56:40;;;;;;;5.88;5.38;;;10.20;99.90;;;;;;4995603;28;20175;-69
2022/09/26 04:59:06;;;;;;;7.23;5.10;;;10.20;99.90;;;;;;4995574;28;20242;-68
2022/09/26 05:01:32;;;;;;;5.13;4.60;;;10.20;99.90;;;;;;4995404;28;20202;-68
2022/09/26 05:03:57;;;;;;;6.20;4.43;;;10.20;99.90;;;;;;4994608;28;20188;-68
2022/09/26 05:06:23;;;;;;;6.00;4.40;;;10.10;99.90;;;;;;4993404;28;20191;-68
2022/09/26 05:08:49;;;;;;;4.63;4.20;;;10.10;99.90;;;;;;4977658;28;20171;-68
2022/09/26 05:11:17;;;;;;;6.93;4.63;;;10.10;99.90;;;;;;4994934;28;20167;-67
2022/09/26 05:13:43;;;;;;;4.25;3.85;;;10.10;99.90;;;;;;4994269;28;20553;-68
2022/09/26 05:16:10;;;;;;;5.95;4.60;;;10.10;99.90;;;;;;4977200;28;20198;-69
2022/09/26 05:18:38;;;;;;;5.50;5.00;;;10.00;99.90;;;;;;4994739;28;20180;-69
2022/09/26 05:21:06;;;;;;;6.20;5.57;;;10.10;99.90;;;;;;4994704;28;20195;-70
2022/09/26 05:26:24;;;;;;;5.75;5.03;;;10.00;99.90;;;;;;4995115;28;20537;-68
2022/09/26 05:28:58;;;;;;;10.93;4.55;;;9.90;99.90;;;;;;4994392;28;20549;-69
2022/09/26 05:31:25;;;;;;;5.25;4.75;;;9.90;99.90;;;;;;4994279;28;20298;-68
2022/09/26 05:33:50;;;;;;;4.50;4.07;;;9.90;99.90;;;;;;4993912;28;20278;-69
2022/09/26 05:36:17;;;;;;;6.00;5.40;;;9.90;99.90;;;;;;4976271;28;20254;-69
2022/09/26 05:38:44;;;;;;;7.03;4.65;;;9.90;99.90;;;;;;4976833;28;20203;-70
2022/09/26 05:41:10;;;;;;;7.13;5.95;;;9.90;99.90;;;;;;4994776;28;20191;-70
2022/09/26 05:43:36;;;;;;;6.50;4.93;;;10.00;99.90;;;;;;4993661;28;20210;-69
2022/09/26 05:46:05;;;;;;;7.77;5.70;;;9.90;99.90;;;;;;4986297;28;20176;-70
2022/09/26 05:48:32;;;;;;;7.25;5.10;;;10.00;99.90;;;;;;4979406;28;20179;-69
2022/09/26 05:51:11;;;;;;;5.00;4.43;;;9.90;99.90;;;;;;4994304;28;20254;-69
2022/09/26 05:53:37;;;;;;;6.85;5.15;;;9.90;99.90;;;;;;4993762;28;20191;-69
2022/09/26 05:56:05;;;;;;;6.28;5.13;;;10.00;99.90;;;;;;4977089;28;20182;-69
2022/09/26 05:58:33;;;;;;;4.68;4.03;;;10.00;99.90;;;;;;4993890;28;20546;-69
2022/09/26 06:01:11;;;;;;;9.73;5.68;;;10.00;99.90;;;;;;4987428;28;20175;-69
2022/09/26 06:03:37;;;;;;;8.15;5.55;;;10.10;99.90;;;;;;4993378;28;20219;-69
2022/09/26 06:06:09;;;;;;;7.17;5.73;;;10.20;99.90;;;;;;4993842;28;20241;-71
2022/09/26 06:08:36;;;;;;;5.68;5.15;;;10.20;99.90;;;;;;4981602;28;20467;-69
2022/09/26 06:11:07;;;;;;;6.57;5.28;;;10.20;99.90;;;;;;4975030;28;20589;-70
2022/09/26 06:13:34;;;;;;;10.52;6.18;;;10.30;99.90;;;;;;4993787;28;20191;-69
2022/09/26 06:16:04;;;;;;;5.97;4.50;;;10.40;99.90;;;;;;4993609;28;20487;-69
2022/09/26 06:18:34;;;;;;;6.68;4.93;;;10.50;99.90;;;;;;4994345;28;20159;-72
2022/09/26 06:21:05;;;;;;;7.95;5.40;;;10.60;99.90;;;;;;4990673;28;20179;-70
2022/09/26 06:23:32;;;;;;;6.57;5.50;;;10.70;99.90;;;;;;4992731;28;20231;-70
2022/09/26 06:25:58;;;;;;;7.10;5.68;;;10.80;99.90;;;;;;4972616;28;20249;-69
2022/09/26 06:28:27;;;;;;;6.90;5.50;;;10.80;99.90;;;;;;4975077;28;20191;-69
2022/09/26 06:30:54;;;;;;;7.63;5.50;;;10.90;99.90;;;;;;4991698;28;20212;-69
2022/09/26 06:33:20;;;;;;;5.82;5.28;;;10.90;99.90;;;;;;4992906;28;20173;-70
2022/09/26 06:35:46;;;;;;;8.18;6.22;;;11.10;99.90;;;;;;4993328;28;20179;-69
2022/09/26 06:38:11;;;;;;;6.20;5.40;;;11.30;99.90;;;;;;4993466;28;20196;-69
2022/09/26 06:40:37;;;;;;;5.30;4.80;;;11.40;99.90;;;;;;4995554;28;20189;-67
2022/09/26 06:43:03;;;;;;;6.53;5.47;;;11.60;99.90;;;;;;4994367;28;20345;-67
2022/09/26 06:45:29;;;;;;;5.53;4.37;;;11.80;99.90;;;;;;4981511;28;20810;-68
2022/09/26 06:47:55;;;;;;;8.17;6.23;;;11.90;99.90;;;;;;4998874;28;20250;-69
2022/09/26 06:50:21;;;;;;;6.73;5.60;;;12.10;99.90;;;;;;4987631;28;20210;-70
2022/09/26 06:52:47;;;;;;;5.40;4.53;;;12.40;99.90;;;;;;4993334;28;20911;-70
2022/09/26 06:55:13;;;;;;;5.73;3.87;;;12.70;99.90;;;;;;4999319;28;20453;-69
2022/09/26 06:57:41;;;;;;;4.77;4.27;;;13.00;99.90;;;;;;4976841;28;20558;-64
2022/09/26 07:00:14;;;;;;;3.97;3.57;;;13.10;99.90;;;;;;4992733;28;20912;-65
2022/09/26 07:02:54;;;;;;;4.33;3.87;;;13.10;99.90;;;;;;4990812;28;20453;-66
2022/09/26 07:05:21;;;;;;;4.47;4.07;;;13.20;99.90;;;;;;4987011;28;20928;-66
2022/09/26 07:07:47;;;;;;;5.57;3.90;;;13.30;99.90;;;;;;4993035;28;20437;-65
2022/09/26 07:10:14;;;;;;;5.07;4.03;;;13.30;99.90;;;;;;4993208;28;20856;-66
2022/09/26 07:12:42;;;;;;;3.93;3.23;;;13.40;99.90;;;;;;4992803;28;20414;-65
2022/09/26 07:15:12;;;;;;;3.87;3.17;;;13.50;99.90;;;;;;4992582;28;20457;-67
2022/09/26 07:17:44;;;;;;;3.27;2.87;;;13.50;99.90;;;;;;4993314;28;20464;-65
2022/09/26 07:20:15;;;;;;;3.93;2.40;;;13.60;99.90;;;;;;4975180;28;20393;-66
2022/09/26 07:22:45;;;;;;;3.07;2.77;;;13.70;99.90;;;;;;4992341;28;20417;-65
2022/09/26 07:25:12;;;;;;;2.30;2.10;;;13.70;99.90;;;;;;4992288;28;20437;-70
2022/09/26 07:27:38;;;;;;;4.23;2.77;;;13.80;99.90;;;;;;4993051;28;20447;-66
2022/09/26 07:30:07;;;;;;;2.43;2.23;;;14.00;99.90;;;;;;4975168;28;20552;-66
2022/09/26 07:32:35;;;;;;;5.13;2.20;;;14.30;99.90;;;;;;4994116;28;20410;-64
2022/09/26 07:35:03;;;;;;;2.40;2.30;;;14.60;99.90;;;;;;5004115;28;20532;-66
2022/09/26 07:37:30;;;;;;;2.73;2.53;;;14.80;99.90;;;;;;4995859;28;20396;-65
2022/09/26 07:39:55;;;;;;;3.07;2.77;;;15.10;99.90;;;;;;4978895;28;20468;-65
2022/09/26 07:42:21;;;;;;;3.43;3.00;;;15.40;99.90;;;;;;4996329;28;20414;-65
2022/09/26 07:44:47;;;;;;;2.57;2.37;;;15.70;99.90;;;;;;4978187;28;20204;-64
2022/09/26 07:50:13;;;;;;;1.63;1.53;;;16.30;99.90;;;;;;4995116;28;20473;-65
2022/09/26 07:52:40;;;;;;;2.73;2.33;;;16.30;99.90;;;;;;4995593;28;20942;-65
2022/09/26 07:55:08;;;;;;;2.03;1.80;;;16.20;99.90;;;;;;4995669;28;20429;-67
2022/09/26 07:57:34;;;;;;;2.50;2.30;;;16.00;99.90;;;;;;4977600;28;20906;-67
2022/09/26 08:00:12;;;;;;;3.90;3.40;;;16.00;99.90;;;;;;4995786;28;20423;-69
2022/09/26 08:02:41;;;;;;;3.80;2.50;;;16.00;99.90;;;;;;5003034;28;20203;-67
2022/09/26 08:05:08;;;;;;;2.23;2.10;;;16.00;99.90;;;;;;4995468;28;20516;-66
2022/09/26 08:07:35;;;;;;;2.63;2.47;;;16.00;99.90;;;;;;4989634;28;20434;-70
2022/09/26 08:10:02;;;;;;;2.30;2.10;;;15.90;99.90;;;;;;4993666;28;20943;-66
2022/09/26 08:12:37;;;;;;;2.20;2.00;;;15.80;99.90;;;;;;4995447;28;20478;-70
2022/09/26 08:15:05;;;;;;;2.77;2.43;;;15.80;99.90;;;;;;4995207;28;20539;-67
2022/09/26 08:17:32;;;;;;;1.77;1.67;;;15.80;99.90;;;;;;4995474;28;20427;-69
2022/09/26 08:19:59;;;;;;;2.17;1.90;;;15.80;99.90;;;;;;4977633;28;20779;-69
2022/09/26 08:22:25;;;;;;;2.13;1.83;;;15.80;99.90;;;;;;4995854;28;20540;-67
2022/09/26 08:24:52;;;;;;;4.20;2.33;;;15.70;99.90;;;;;;4994451;28;20944;-65
2022/09/26 08:27:19;;;;;;;4.73;2.90;;;15.80;99.90;;;;;;4977804;28;20213;-65
2022/09/26 08:29:47;;;;;;;1.90;1.80;;;15.80;99.90;;;;;;4995164;28;20456;-69
2022/09/26 08:32:13;;;;;;;1.60;1.50;;;16.00;99.90;;;;;;4994978;28;20400;-68
2022/09/26 08:34:39;;;;;;;1.80;1.70;;;16.00;99.90;;;;;;4994947;28;20480;-67
2022/09/26 08:37:05;;;;;;;3.37;1.60;;;16.00;99.90;;;;;;4995103;28;20410;-66
2022/09/26 08:39:31;;;;;;;2.27;1.60;;;16.10;99.90;;;;;;4994923;28;20417;-67
2022/09/26 08:42:06;;;;;;;2.97;1.87;;;16.20;99.90;;;;;;4994951;28;20493;-66
2022/09/26 08:44:41;;;;;;;1.93;1.83;;;16.20;99.90;;;;;;4977025;28;20256;-64
2022/09/26 08:47:15;;;;;;;1.70;1.60;;;16.40;99.90;;;;;;4989870;28;20415;-66
2022/09/26 08:50:03;;;;;;;2.90;1.50;;;16.50;99.90;;;;;;4985493;28;20432;-63
2022/09/26 08:52:52;;;;;;;1.70;1.60;;;16.70;99.90;;;;;;4994717;28;20423;-67
2022/09/26 08:55:25;;;;;;;1.50;1.40;;;17.00;99.90;;;;;;4994702;28;20822;-66
2022/09/26 08:58:17;;;;;;;2.00;1.80;;;17.20;99.90;;;;;;4994441;28;20422;-65
2022/09/26 09:00:44;;;;;;;2.03;1.83;;;17.50;99.90;;;;;;4994271;28;20385;-67
2022/09/26 09:03:32;;;;;;;1.80;1.70;;;17.80;99.90;;;;;;4994566;28;20410;-65
2022/09/26 09:06:06;;;;;;;1.67;1.57;;;18.10;99.90;;;;;;4994316;28;20447;-67
2022/09/26 09:08:39;;;;;;;1.97;1.83;;;19.00;99.90;;;;;;4994599;28;20411;-66
2022/09/26 09:11:23;;;;;;;2.03;1.30;;;20.30;99.90;;;;;;4994137;28;20459;-67
2022/09/26 09:14:01;;;;;;;4.80;1.57;;;21.80;97.50;;;;;;4975534;28;20442;-67
2022/09/26 09:16:55;;;;;;;1.60;1.50;;;23.10;94.80;;;;;;4989714;28;20397;-68
2022/09/26 09:19:54;;;;;;;2.37;1.83;;;24.50;91.60;;;;;;4967063;28;20441;-68
2022/09/26 09:22:40;;;;;;;1.50;1.40;;;25.40;88.70;;;;;;4993473;28;20426;-69
2022/09/26 09:25:16;;;;;;;1.80;1.40;;;26.20;83.70;;;;;;4993846;28;20502;-68
2022/09/26 09:28:07;;;;;;;1.43;1.33;;;26.50;80.50;;;;;;4994347;28;20582;-65
2022/09/26 09:30:43;;;;;;;2.10;1.60;;;26.80;76.80;;;;;;4972948;28;20474;-67
2022/09/26 09:33:16;;;;;;;1.90;1.70;;;27.20;77.60;;;;;;4991567;28;20423;-68
2022/09/26 09:35:43;;;;;;;1.50;1.40;;;27.80;74.20;;;;;;4989098;28;20430;-67
2022/09/26 09:38:23;;;;;;;1.67;1.57;;;28.40;72.20;;;;;;4994585;28;20408;-66
2022/09/26 09:41:01;;;;;;;1.70;1.60;;;28.90;71.10;;;;;;4993894;28;20462;-66
2022/09/26 09:43:46;;;;;;;3.20;1.80;;;28.90;69.20;;;;;;4995294;28;20417;-68
2022/09/26 09:46:28;;;;;;;1.40;1.30;;;28.80;68.70;;;;;;4996054;28;20498;-66
2022/09/26 09:49:13;;;;;;;1.70;1.60;;;28.40;66.90;;;;;;4995976;28;20418;-67
2022/09/26 09:51:57;;;;;;;1.80;1.70;;;27.60;68.50;;;;;;5004914;28;20452;-66
2022/09/26 09:54:41;;;;;;;1.17;1.07;;;26.60;73.00;;;;;;4992940;28;20692;-67
2022/09/26 09:57:33;;;;;;;2.40;1.47;;;25.50;73.40;;;;;;4994251;28;20384;-67
2022/09/26 10:00:16;;;;;;;1.23;1.20;;;24.40;74.60;;;;;;4992547;28;20532;-65
2022/09/26 10:02:51;;;;;;;1.60;1.50;;;23.00;77.60;;;;;;4973468;28;20529;-66
2022/09/26 10:05:43;;;;;;;2.43;1.53;;;22.00;80.80;;;;;;4974910;28;20909;-64
2022/09/26 10:08:30;;;;;;;2.77;1.30;;;21.70;84.60;;;;;;4993591;28;20854;-65
2022/09/26 10:11:14;;;;;;;1.70;1.60;;;22.00;83.40;;;;;;4993455;28;20422;-65
2022/09/26 10:13:42;;;;;;;1.10;1.03;;;21.70;82.10;;;;;;4993442;28;20466;-65
2022/09/26 10:16:10;;;;;;;1.20;1.17;;;21.50;83.30;;;;;;4993102;28;20417;-67
2022/09/26 10:19:02;;;;;;;2.23;1.53;;;21.30;84.00;;;;;;4993076;28;20429;-66
2022/09/26 10:21:34;;;;;;;1.67;1.23;;;21.10;83.10;;;;;;4987120;28;20774;-66
2022/09/26 10:24:03;;;;;;;1.60;1.50;;;21.00;83.60;;;;;;4992544;28;20426;-65
2022/09/26 10:26:33;;;;;;;1.30;1.30;;;21.00;84.90;;;;;;4989928;28;20747;-66
2022/09/26 10:29:23;;;;;;;1.37;1.37;;;20.70;85.00;;;;;;4984270;28;20414;-67
2022/09/26 10:31:55;;;;;;;1.50;1.40;;;20.40;85.50;;;;;;4987245;28;20502;-67
2022/09/26 10:34:27;;;;;;;1.30;1.30;;;19.90;87.50;;;;;;4992629;28;20443;-65
2022/09/26 10:36:53;;;;;;;1.13;1.03;;;19.40;88.30;;;;;;4991655;28;20780;-67
2022/09/26 10:42:20;;;;;;;1.63;1.53;;;18.50;90.00;;;;;;4989987;28;20494;-67
2022/09/26 10:44:47;;;;;;;5.73;1.63;;;18.30;90.80;;;;;;4992865;28;21071;-67
2022/09/26 10:47:15;;;;;;;1.60;1.20;;;18.20;90.90;;;;;;4990878;28;20459;-67
2022/09/26 10:49:53;;;;;;;1.73;1.63;;;18.00;91.70;;;;;;4992229;28;20426;-65
2022/09/26 10:52:28;;;;;;;1.67;1.57;;;18.30;92.60;;;;;;4993920;28;20411;-67
2022/09/26 10:55:02;;;;;;;1.90;1.80;;;19.10;92.40;;;;;;4975749;28;20445;-66
2022/09/26 10:57:35;;;;;;;1.40;1.30;;;19.90;90.90;;;;;;4993624;28;20430;-68
2022/09/26 11:00:05;;;;;;;1.77;1.67;;;20.40;89.20;;;;;;4986767;28;20442;-67
2022/09/26 11:02:31;;;;;;;1.20;1.10;;;20.60;87.00;;;;;;4968565;28;20468;-64
2022/09/26 11:07:51;;;;;;;1.60;1.47;;;20.50;86.90;;;;;;4993626;28;20828;-63
2022/09/26 11:10:23;;;;;;;1.20;1.20;;;20.20;87.30;;;;;;4976341;28;20883;-66
2022/09/26 11:13:14;;;;;;;1.53;1.43;;;19.90;87.50;;;;;;4997086;28;20411;-66
2022/09/26 11:15:50;;;;;;;1.00;1.00;;;19.70;88.40;;;;;;4997271;28;20803;-66
2022/09/26 11:18:25;;;;;;;1.57;1.47;;;19.50;90.00;;;;;;4979401;28;20392;-67
2022/09/26 11:20:56;;;;;;;4.10;1.47;;;19.50;89.20;;;;;;4997189;28;20456;-65
2022/09/26 11:23:39;;;;;;;1.63;1.10;;;19.70;88.00;;;;;;4996823;28;20411;-64
2022/09/26 11:26:20;;;;;;;1.37;1.30;;;19.70;86.40;;;;;;4997147;28;20394;-66
2022/09/26 11:29:03;;;;;;;1.03;1.03;;;19.50;86.60;;;;;;4979761;28;20476;-66
2022/09/26 11:31:35;;;;;;;1.43;1.33;;;19.40;87.30;;;;;;4979420;28;20426;-65
2022/09/26 11:34:03;;;;;;;1.60;1.50;;;19.40;87.20;;;;;;4978837;28;20413;-66
2022/09/26 11:36:53;;;;;;;1.13;1.13;;;19.40;87.50;;;;;;4979529;28;20494;-68
2022/09/26 11:39:31;;;;;;;0.80;0.80;;;19.20;86.20;;;;;;4996899;28;20454;-66
2022/09/26 11:42:08;;;;;;;0.90;0.90;;;18.90;84.50;;;;;;4996503;28;20433;-67
2022/09/26 11:44:58;;;;;;;1.87;0.87;;;18.60;83.70;;;;;;4995886;28;20476;-67
2022/09/26 11:47:38;;;;;;;0.83;0.80;;;18.50;85.00;;;;;;4996718;28;20414;-68
2022/09/26 11:50:19;;;;;;;1.83;0.90;;;18.40;85.90;;;;;;4992889;28;20414;-68
2022/09/26 11:52:54;;;;;;;0.90;0.90;;;18.40;86.00;;;;;;4995419;28;20403;-67
2022/09/26 11:55:36;;;;;;;1.10;1.10;;;18.40;86.70;;;;;;4994271;28;20423;-68
2022/09/26 11:58:01;;;;;;;1.23;1.13;;;18.50;86.90;;;;;;4996246;28;20920;-67
2022/09/26 12:00:56;;;;;;;1.10;0.93;;;18.60;87.90;;;;;;4995945;28;20454;-67
2022/09/26 12:04:00;;;;;;;1.20;1.10;;;18.70;86.40;;;;;;4995256;28;20183;-68
2022/09/26 12:06:40;;;;;;;1.03;0.93;;;18.70;89.90;;;;;;4995991;28;20437;-65
2022/09/26 12:09:33;;;;;;;0.67;0.67;;;18.80;87.30;;;;;;4996346;28;20415;-67
2022/09/26 12:12:08;;;;;;;1.13;0.60;;;18.80;86.70;;;;;;4996126;28;20462;-69
2022/09/26 12:14:54;;;;;;;0.80;0.80;;;18.70;86.20;;;;;;4995672;28;20430;-67
2022/09/26 12:17:39;;;;;;;0.90;0.90;;;18.60;85.80;;;;;;4995781;28;20443;-68
2022/09/26 12:20:32;;;;;;;1.77;0.97;;;18.40;86.20;;;;;;4996278;28;20789;-67
2022/09/26 12:23:13;;;;;;;1.00;1.00;;;18.30;88.10;;;;;;4975252;28;20772;-67
2022/09/26 12:26:07;;;;;;;0.90;0.90;;;18.10;90.20;;;;;;4976679;28;20407;-67
2022/09/26 12:28:57;;;;;;;2.57;2.37;;;17.80;92.40;;;;;;4976724;28;20395;-67
2022/09/26 12:31:58;;;;;;;0.70;0.70;;;17.40;93.20;;;;;;4959187;28;20837;-68
2022/09/26 12:35:21;;;;;;;0.87;0.87;;;17.20;92.90;;;;;;4976072;28;20474;-66
2022/09/26 12:38:34;;;;;;;0.53;0.53;;;17.10;93.20;;;;;;4901271;29;20834;-67
2022/09/26 12:41:14;;;;;;;1.60;0.73;;;17.10;93.50;;;;;;4898069;29;20474;-67
2022/09/26 12:44:13;;;;;;;2.33;1.13;;;17.30;94.30;;;;;;4914403;29;20786;-66
2022/09/26 12:47:03;;;;;;;1.00;1.00;;;17.60;94.50;;;;;;4912237;29;20423;-66
2022/09/26 12:49:44;;;;;;;1.97;0.90;;;17.90;94.50;;;;;;4916695;29;20389;-65
2022/09/26 12:52:51;;;;;;;0.90;0.90;;;18.10;94.60;;;;;;4916944;29;20509;-66
2022/09/26 12:55:26;;;;;;;0.70;0.70;;;18.30;94.70;;;;;;4916084;29;20470;-66
2022/09/26 12:58:00;;;;;;;1.30;1.07;;;18.40;93.00;;;;;;4900863;29;20505;-67
2022/09/26 13:00:39;;;;;;;1.10;1.00;;;18.40;92.90;;;;;;4916553;29;20479;-66
2022/09/26 13:03:23;;;;;;;1.23;1.00;;;18.60;91.90;;;;;;4901280;29;21071;-67
2022/09/26 13:05:49;;;;;;;0.93;0.93;;;18.70;91.20;;;;;;4904616;29;20433;-66
2022/09/26 13:08:33;;;;;;;0.87;0.87;;;18.70;90.90;;;;;;4939193;28;20508;-70
2022/09/26 13:11:29;;;;;;;0.90;0.90;;;18.70;91.80;;;;;;4991425;28;20175;-70
2022/09/26 13:14:11;;;;;;;1.07;0.97;;;18.70;90.20;;;;;;4934680;29;20444;-71
2022/09/26 13:17:08;;;;;;;0.93;0.83;;;18.60;89.70;;;;;;4925393;29;20508;-70
2022/09/26 13:19:58;;;;;;;0.97;0.97;;;18.50;89.00;;;;;;4916060;29;20807;-72
2022/09/26 13:22:31;;;;;;;0.57;0.57;;;18.30;88.40;;;;;;4928068;29;20477;-72
2022/09/26 13:25:35;;;;;;;0.87;0.87;;;18.20;87.50;;;;;;4935021;29;20504;-71
2022/09/26 13:28:09;;;;;;;0.80;0.80;;;18.00;89.90;;;;;;4934807;29;20493;-73
2022/09/26 13:30:41;;;;;;;0.80;0.80;;;17.70;90.00;;;;;;4925590;29;20430;-74
2022/09/26 13:33:26;;;;;;;0.70;0.70;;;17.60;90.40;;;;;;4925215;29;20894;-71
2022/09/26 13:35:55;;;;;;;0.57;0.50;;;17.40;90.30;;;;;;4932684;29;20885;-71
2022/09/26 13:38:20;;;;;;;0.93;0.80;;;17.20;90.20;;;;;;4934319;29;20982;-69
2022/09/26 13:41:24;;;;;;;1.37;0.73;;;17.10;87.70;;;;;;4928859;29;20464;-69
2022/09/26 13:44:22;;;;;;;0.60;0.60;;;16.80;88.00;;;;;;4899330;29;20666;-71
2022/09/26 13:47:11;;;;;;;1.80;0.70;;;16.60;89.30;;;;;;4899719;29;20571;-67
2022/09/26 13:50:34;;;;;;;1.73;1.23;;;16.60;88.80;;;;;;4918218;29;20404;-70
2022/09/26 13:55:38;;;;;;;0.73;0.60;;;16.60;88.10;;;;;;5006065;23;20478;-71
2022/09/26 13:58:18;;;;;;;0.70;0.70;;;16.70;88.30;;;;;;4991823;28;21039;-71
2022/09/26 14:00:51;;;;;;;0.63;0.63;;;16.80;88.30;;;;;;4992375;28;20199;-70
2022/09/26 14:03:17;;;;;;;0.50;0.50;;;17.00;89.70;;;;;;4991648;28;20410;-71
2022/09/26 14:05:43;;;;;;;0.50;0.50;;;17.20;89.80;;;;;;4992343;28;20421;-71
2022/09/26 14:11:50;;;;;;;0.80;0.60;;;17.60;88.30;;;;;;4993634;28;20246;-71
2022/09/26 14:14:16;;;;;;;0.70;0.70;;;17.60;89.40;;;;;;4976258;28;20513;-70
2022/09/26 14:16:47;;;;;;;0.73;0.70;;;17.70;88.90;;;;;;4994274;28;20414;-71
2022/09/26 14:19:29;;;;;;;0.97;0.97;;;17.80;88.70;;;;;;4993955;28;20418;-71
2022/09/26 14:22:24;;;;;;;0.80;0.67;;;17.80;88.40;;;;;;4994271;28;20453;-70
2022/09/26 14:24:54;;;;;;;2.50;2.00;;;17.80;88.70;;;;;;4974090;28;20455;-70
2022/09/26 14:27:20;;;;;;;0.70;0.70;;;17.80;89.30;;;;;;4974722;28;20735;-69
2022/09/26 14:29:51;;;;;;;0.60;0.60;;;17.70;90.20;;;;;;4974656;28;20473;-69
2022/09/26 14:32:22;;;;;;;1.23;0.60;;;17.70;90.60;;;;;;4974692;28;20661;-71
2022/09/26 14:34:58;;;;;;;1.20;1.20;;;17.60;90.30;;;;;;4974242;28;20434;-71
2022/09/26 14:37:23;;;;;;;4.17;1.10;;;17.60;90.70;;;;;;4989507;28;20813;-70
2022/09/26 14:39:58;;;;;;;1.10;1.10;;;17.40;91.00;;;;;;4976404;28;20465;-70
2022/09/26 14:42:40;;;;;;;1.20;1.20;;;17.30;91.40;;;;;;4993848;28;20183;-71
2022/09/26 14:45:19;;;;;;;0.77;0.77;;;17.30;91.50;;;;;;4993826;28;20399;-71
2022/09/26 14:47:59;;;;;;;1.23;1.07;;;17.30;91.30;;;;;;4980127;28;20508;-70
2022/09/26 14:50:34;;;;;;;1.03;1.03;;;17.20;91.20;;;;;;4997386;28;20866;-71
2022/09/26 14:53:41;;;;;;;0.60;0.60;;;17.30;91.20;;;;;;4996795;28;20500;-70
2022/09/26 14:56:09;;;;;;;0.90;0.70;;;17.10;90.70;;;;;;4988060;28;20457;-71
2022/09/26 14:58:37;;;;;;;0.70;0.70;;;17.00;90.80;;;;;;4997155;28;20437;-71
2022/09/26 15:01:29;;;;;;;0.60;0.60;;;17.00;90.90;;;;;;4997521;28;20417;-72
2022/09/26 15:04:24;;;;;;;0.80;0.80;;;16.90;91.40;;;;;;4991987;28;20885;-71
2022/09/26 15:06:53;;;;;;;1.67;1.53;;;17.00;91.00;;;;;;4997013;28;20923;-71
2022/09/26 15:09:30;;;;;;;0.93;0.90;;;17.00;90.80;;;;;;4979452;28;20922;-72
2022/09/26 15:11:59;;;;;;;0.60;0.60;;;16.80;91.70;;;;;;4974570;28;20432;-69
2022/09/26 15:14:31;;;;;;;0.60;0.60;;;16.70;91.10;;;;;;4996604;28;20827;-70
2022/09/26 15:16:59;;;;;;;0.80;0.60;;;16.60;91.60;;;;;;4979680;28;20409;-74
2022/09/26 15:19:41;;;;;;;0.97;0.97;;;16.50;91.60;;;;;;4997106;28;20545;-69
2022/09/26 15:22:14;;;;;;;0.80;0.80;;;16.50;91.80;;;;;;4979251;28;20421;-69
2022/09/26 15:24:40;;;;;;;2.00;1.80;;;16.40;91.90;;;;;;4996593;28;20783;-70
2022/09/26 15:27:27;;;;;;;1.20;1.10;;;16.30;92.00;;;;;;4996981;28;20405;-66
2022/09/26 15:30:02;;;;;;;1.17;0.70;;;16.30;92.50;;;;;;4995487;28;20183;-65
2022/09/26 15:32:30;;;;;;;1.20;1.10;;;16.30;92.20;;;;;;4994914;28;20425;-69
2022/09/26 15:34:56;;;;;;;0.70;0.70;;;16.20;92.20;;;;;;4979155;28;20468;-67
2022/09/26 15:37:29;;;;;;;0.83;0.83;;;16.20;92.50;;;;;;4996522;28;20420;-70
2022/09/26 15:39:56;;;;;;;1.17;0.80;;;16.10;92.80;;;;;;4995814;28;20460;-67
2022/09/26 15:45:28;;;;;;;0.50;0.50;;;16.10;92.30;;;;;;4996823;28;20498;-71
2022/09/26 15:47:58;;;;;;;1.07;0.73;;;16.00;92.40;;;;;;4996408;28;20498;-68
2022/09/26 15:50:42;;;;;;;0.67;0.67;;;16.00;92.40;;;;;;4979003;28;20485;-65
2022/09/26 15:53:10;;;;;;;0.90;0.60;;;15.90;92.30;;;;;;4995686;28;20830;-68
2022/09/26 15:56:00;;;;;;;1.17;0.87;;;15.80;92.40;;;;;;4996196;28;20859;-67
2022/09/26 15:58:49;;;;;;;5.93;2.30;;;15.70;92.60;;;;;;4995792;28;20513;-67
2022/09/26 16:01:20;;;;;;;1.70;1.30;;;15.70;93.40;;;;;;4994663;28;20434;-64
2022/09/26 16:04:01;;;;;;;1.53;1.00;;;15.60;93.30;;;;;;4995793;28;20562;-63
2022/09/26 16:06:28;;;;;;;0.87;0.87;;;15.60;93.10;;;;;;4995879;28;20403;-65
2022/09/26 16:09:10;;;;;;;0.60;0.60;;;15.50;92.90;;;;;;4995986;28;20417;-63
2022/09/26 16:11:48;;;;;;;3.47;1.30;;;15.40;93.00;;;;;;5011019;28;21226;-64
2022/09/26 16:14:29;;;;;;;0.70;0.70;;;15.40;93.20;;;;;;4995533;28;20596;-70
2022/09/26 16:17:20;;;;;;;0.80;0.73;;;15.30;93.40;;;;;;4995393;28;20433;-67
2022/09/26 16:19:52;;;;;;;0.53;0.53;;;15.20;93.70;;;;;;4995937;28;20457;-68
2022/09/26 16:22:44;;;;;;;22.83;5.40;;;15.20;94.00;;;;;;4989216;28;20532;-70
2022/09/26 16:25:19;;;;;;;2.93;2.37;;;15.10;94.30;;;;;;4995158;28;20501;-73
2022/09/26 16:27:58;;;;;;;5.03;3.17;;;15.00;94.90;;;;;;4994928;28;20882;-68
2022/09/26 16:30:24;;;;;;;1.03;0.93;;;15.00;95.60;;;;;;4995301;28;20832;-70
2022/09/26 16:33:29;;;;;;;1.00;1.00;;;14.90;95.50;;;;;;4994242;28;20431;-69
2022/09/26 16:36:07;;;;;;;0.87;0.87;;;14.90;95.50;;;;;;4991223;28;20183;-71
2022/09/26 16:38:36;;;;;;;0.90;0.80;;;14.80;95.60;;;;;;4995488;28;20410;-69
2022/09/26 16:41:15;;;;;;;1.63;1.07;;;14.80;95.80;;;;;;4994966;28;20458;-69
2022/09/26 16:43:41;;;;;;;1.47;0.70;;;14.80;95.90;;;;;;4994772;28;20423;-70
2022/09/26 16:46:12;;;;;;;0.70;0.70;;;14.60;96.10;;;;;;4995153;28;20932;-69
2022/09/26 16:48:50;;;;;;;0.70;0.70;;;14.60;96.00;;;;;;4995489;28;20657;-69
2022/09/26 16:51:20;;;;;;;1.20;1.10;;;14.60;96.50;;;;;;4994857;28;20476;-66
2022/09/26 16:53:52;;;;;;;1.10;1.00;;;14.60;96.40;;;;;;4985477;28;20466;-70
2022/09/26 16:56:21;;;;;;;1.73;1.10;;;14.60;96.30;;;;;;4993755;28;20405;-71
2022/09/26 16:58:50;;;;;;;1.37;1.00;;;14.50;96.60;;;;;;4993642;28;20407;-70
2022/09/26 17:04:02;;;;;;;3.43;2.03;;;14.50;97.00;;;;;;4994356;28;20479;-71
2022/09/26 17:06:29;;;;;;;1.83;1.10;;;14.50;96.70;;;;;;4994930;28;20403;-70
2022/09/26 17:09:01;;;;;;;1.27;1.13;;;14.50;96.80;;;;;;5000265;28;20428;-69
2022/09/26 17:11:27;;;;;;;1.67;1.40;;;14.50;96.90;;;;;;4995004;28;20406;-68
2022/09/26 17:13:53;;;;;;;1.27;1.17;;;14.50;97.40;;;;;;4994217;28;20519;-68
2022/09/26 17:16:19;;;;;;;1.30;1.20;;;14.40;97.50;;;;;;4993612;28;20316;-71
2022/09/26 17:18:45;;;;;;;1.20;1.17;;;14.40;97.60;;;;;;4993983;28;20429;-70
2022/09/26 17:21:11;;;;;;;1.10;1.00;;;14.40;97.90;;;;;;4993597;28;20458;-71
2022/09/26 17:23:37;;;;;;;0.93;0.87;;;14.40;98.00;;;;;;4983871;28;20541;-67
2022/09/26 17:26:07;;;;;;;0.90;0.90;;;14.30;97.70;;;;;;4994113;28;20418;-68
2022/09/26 17:28:41;;;;;;;2.93;0.90;;;14.30;97.60;;;;;;4994056;28;20923;-66
2022/09/26 17:31:10;;;;;;;1.20;1.10;;;14.30;97.60;;;;;;4993739;28;20750;-70
2022/09/26 17:33:40;;;;;;;1.50;1.03;;;14.30;98.10;;;;;;4993287;28;20460;-70
2022/09/26 17:36:09;;;;;;;2.20;0.90;;;14.30;97.80;;;;;;4994392;28;20422;-72
2022/09/26 17:38:36;;;;;;;1.30;1.23;;;14.20;97.70;;;;;;4994255;28;20401;-69
2022/09/26 17:41:02;;;;;;;1.43;0.90;;;14.20;98.00;;;;;;4994187;28;20458;-71
2022/09/26 17:43:28;;;;;;;0.90;0.90;;;14.20;98.00;;;;;;4993776;28;21031;-70
2022/09/26 17:45:54;;;;;;;1.00;0.90;;;14.20;98.10;;;;;;4993644;28;20549;-71
2022/09/26 17:48:26;;;;;;;1.20;1.10;;;14.20;98.50;;;;;;4994122;28;20202;-70
2022/09/26 17:50:54;;;;;;;1.67;1.10;;;14.20;98.40;;;;;;4976332;28;20552;-66
2022/09/26 17:53:21;;;;;;;1.60;1.40;;;14.20;98.60;;;;;;4975896;28;20737;-71
2022/09/26 17:55:47;;;;;;;1.00;1.00;;;14.10;98.70;;;;;;4975950;28;20466;-69